Time;durP1;ratioP1;P1;durP2;ratioP2;P2;SDS_P1;SDS_P2;PMS_P1;PMS_P2;Temp;Humidity;BMP_temperature;BMP_pressure;BME280_temperature;BME280_humidity;BME280_pressure;Samples;Min_cycle;Max_cycle;Signal;HPM_P1;HPM_P2
2022/06/25 00:00:26;;;;;;;1.33;1.10;;;23.10;99.90;;;;;;1043771;28;20021;-70
2022/06/25 00:00:57;;;;;;;1.20;1.07;;;23.20;99.90;;;;;;1043016;28;20123;-70
2022/06/25 00:01:28;;;;;;;1.20;1.10;;;23.70;99.90;;;;;;1043109;28;20032;-70
2022/06/25 00:01:58;;;;;;;1.73;1.27;;;23.50;99.90;;;;;;1043002;28;20043;-70
2022/06/25 00:02:29;;;;;;;1.30;1.00;;;22.50;99.90;;;;;;1043383;28;20040;-70
2022/06/25 00:03:00;;;;;;;1.73;1.30;;;23.50;99.90;;;;;;1046683;28;20059;-70
2022/06/25 00:03:31;;;;;;;1.10;1.00;;;23.20;99.90;;;;;;1047320;28;20023;-70
2022/06/25 00:04:01;;;;;;;1.50;1.27;;;23.10;99.90;;;;;;1047387;28;20594;-70
2022/06/25 00:05:32;;;;;;;1.40;1.17;;;23.40;99.90;;;;;;1043307;28;20035;-72
2022/06/25 00:06:03;;;;;;;1.70;1.30;;;23.20;99.90;;;;;;1043714;28;20100;-70
2022/06/25 00:06:33;;;;;;;1.53;1.20;;;23.20;99.90;;;;;;1043256;28;20028;-71
2022/06/25 00:07:04;;;;;;;1.43;1.33;;;23.40;99.90;;;;;;1043292;28;20017;-71
2022/06/25 00:07:35;;;;;;;1.50;1.40;;;23.20;99.90;;;;;;1043240;28;20051;-69
2022/06/25 00:08:06;;;;;;;1.47;1.10;;;23.20;99.90;;;;;;1047084;28;20078;-73
2022/06/25 00:08:38;;;;;;;1.47;1.30;;;23.20;99.90;;;;;;1046695;28;20109;-72
2022/06/25 00:09:09;;;;;;;1.33;1.10;;;23.50;99.90;;;;;;1047506;28;20048;-70
2022/06/25 00:09:40;;;;;;;1.70;1.53;;;23.20;99.90;;;;;;1046757;28;20032;-71
2022/06/25 00:10:11;;;;;;;2.08;1.27;;;23.20;99.90;;;;;;1043581;28;20021;-71
2022/06/25 00:10:42;;;;;;;1.43;1.33;;;23.20;99.90;;;;;;1043385;28;20025;-71
2022/06/25 00:12:54;;;;;;;1.17;1.10;;;23.20;99.90;;;;;;1043438;28;20039;-72
2022/06/25 00:13:25;;;;;;;2.00;1.47;;;23.20;99.90;;;;;;1047394;28;20016;-72
2022/06/25 00:13:57;;;;;;;1.77;1.20;;;23.20;99.90;;;;;;1046919;28;20021;-72
2022/06/25 00:14:27;;;;;;;1.38;1.25;;;23.10;99.90;;;;;;1047462;28;20542;-73
2022/06/25 00:15:03;;;;;;;1.47;1.27;;;23.20;99.90;;;;;;1047024;28;20475;-71
2022/06/25 00:15:34;;;;;;;1.35;1.25;;;23.20;99.90;;;;;;1047369;28;20027;-71
2022/06/25 00:16:04;;;;;;;1.30;1.20;;;23.30;99.90;;;;;;1047443;28;20036;-72
2022/06/25 00:16:36;;;;;;;1.10;1.00;;;23.20;99.90;;;;;;1047293;28;20031;-71
2022/06/25 00:17:06;;;;;;;1.38;1.27;;;23.10;99.90;;;;;;1047026;28;20520;-72
2022/06/25 00:17:37;;;;;;;2.20;1.17;;;22.90;99.90;;;;;;1043118;28;20382;-71
2022/06/25 00:18:07;;;;;;;1.30;1.20;;;23.10;99.90;;;;;;1043093;28;20020;-72
2022/06/25 00:18:38;;;;;;;1.53;1.40;;;23.10;99.90;;;;;;1043285;28;20021;-71
2022/06/25 00:19:08;;;;;;;4.20;1.43;;;23.20;99.90;;;;;;1047121;28;20029;-71
2022/06/25 00:19:39;;;;;;;1.47;1.37;;;23.50;99.90;;;;;;1047330;28;20021;-71
2022/06/25 00:20:10;;;;;;;1.60;1.27;;;23.40;99.90;;;;;;1043009;28;20048;-70
2022/06/25 00:20:42;;;;;;;1.10;1.00;;;23.10;99.90;;;;;;1043129;28;20499;-70
2022/06/25 00:21:12;;;;;;;2.30;1.15;;;23.10;99.90;;;;;;1043126;28;20064;-70
2022/06/25 00:21:43;;;;;;;1.50;1.40;;;23.00;99.90;;;;;;1039575;28;20452;-71
2022/06/25 00:22:14;;;;;;;0.90;0.90;;;23.10;99.90;;;;;;1043144;28;20017;-70
2022/06/25 00:22:44;;;;;;;1.33;1.07;;;23.00;99.90;;;;;;1043124;28;20257;-70
2022/06/25 00:23:15;;;;;;;1.33;1.20;;;23.00;99.90;;;;;;1042992;28;20482;-70
2022/06/25 00:23:45;;;;;;;1.77;1.40;;;22.80;99.90;;;;;;1047215;28;20071;-71
2022/06/25 00:24:16;;;;;;;1.73;1.33;;;23.00;99.90;;;;;;1046879;28;20020;-71
2022/06/25 00:24:47;;;;;;;1.13;0.95;;;23.20;99.90;;;;;;1047789;28;20024;-71
2022/06/25 00:25:18;;;;;;;1.23;1.13;;;23.20;99.90;;;;;;1047120;28;20027;-71
2022/06/25 00:25:49;;;;;;;1.48;1.20;;;22.90;99.90;;;;;;1047381;28;20561;-70
2022/06/25 00:26:19;;;;;;;1.20;1.10;;;22.90;99.90;;;;;;1047206;28;20588;-71
2022/06/25 00:26:50;;;;;;;1.60;1.30;;;23.60;99.90;;;;;;1047436;28;20023;-71
2022/06/25 00:27:21;;;;;;;1.70;1.60;;;23.20;99.90;;;;;;1046876;28;20503;-70
2022/06/25 00:27:51;;;;;;;2.13;1.50;;;23.10;99.90;;;;;;1047804;28;20021;-70
2022/06/25 00:28:22;;;;;;;1.63;1.40;;;23.00;99.90;;;;;;1047258;28;20016;-71
2022/06/25 00:28:52;;;;;;;0.90;0.90;;;23.10;99.90;;;;;;1048197;28;20111;-71
2022/06/25 00:29:23;;;;;;;1.40;1.30;;;23.00;99.90;;;;;;1047375;28;20016;-71
2022/06/25 00:29:53;;;;;;;1.30;1.20;;;23.00;99.90;;;;;;1047917;28;20017;-71
2022/06/25 00:30:24;;;;;;;1.03;0.93;;;23.30;99.90;;;;;;1047267;28;20036;-72
2022/06/25 00:30:54;;;;;;;1.60;1.27;;;23.10;99.90;;;;;;1047815;28;20023;-72
2022/06/25 00:31:25;;;;;;;1.33;1.10;;;23.50;99.90;;;;;;1047018;28;20672;-70
2022/06/25 00:31:56;;;;;;;1.57;1.33;;;23.00;99.90;;;;;;1043095;28;20021;-69
2022/06/25 00:32:26;;;;;;;2.27;1.40;;;23.20;99.90;;;;;;1042923;28;20383;-70
2022/06/25 00:32:57;;;;;;;1.63;1.43;;;23.10;99.90;;;;;;1043158;28;20028;-71
2022/06/25 00:33:27;;;;;;;1.53;1.20;;;23.60;99.90;;;;;;1047289;28;20661;-70
2022/06/25 00:33:58;;;;;;;1.80;1.30;;;23.00;99.90;;;;;;1047577;28;20379;-73
2022/06/25 00:34:28;;;;;;;1.23;1.13;;;23.20;99.90;;;;;;1047654;28;20424;-71
2022/06/25 00:34:59;;;;;;;1.50;1.40;;;23.00;99.90;;;;;;1047387;28;20089;-71
2022/06/25 00:35:30;;;;;;;2.00;1.57;;;22.90;99.90;;;;;;1047635;28;20089;-70
2022/06/25 00:36:00;;;;;;;1.33;1.15;;;22.90;99.90;;;;;;1046901;28;20649;-69
2022/06/25 00:36:32;;;;;;;1.43;1.33;;;23.20;99.90;;;;;;1047380;28;20495;-70
2022/06/25 00:37:02;;;;;;;2.00;1.30;;;23.20;99.90;;;;;;1046953;28;20071;-69
2022/06/25 00:37:33;;;;;;;1.87;1.00;;;22.90;99.90;;;;;;1047426;28;20082;-71
2022/06/25 00:38:03;;;;;;;1.23;1.03;;;23.30;99.90;;;;;;1047266;28;20056;-71
2022/06/25 00:38:34;;;;;;;2.47;1.40;;;23.00;99.90;;;;;;1047703;28;20039;-70
2022/06/25 00:39:05;;;;;;;1.27;1.10;;;23.00;99.90;;;;;;1047384;28;20537;-70
2022/06/25 00:39:36;;;;;;;2.00;1.30;;;23.00;99.90;;;;;;1047794;28;20449;-70
2022/06/25 00:40:08;;;;;;;1.77;1.10;;;23.00;99.90;;;;;;1047393;28;20051;-70
2022/06/25 00:40:38;;;;;;;1.70;1.40;;;23.00;99.90;;;;;;1047557;28;20059;-70
2022/06/25 00:41:09;;;;;;;1.30;1.20;;;23.00;99.90;;;;;;1047529;28;20017;-70
2022/06/25 00:41:39;;;;;;;1.30;1.20;;;22.80;99.90;;;;;;1047623;28;20123;-70
2022/06/25 00:42:12;;;;;;;1.23;1.13;;;23.00;99.90;;;;;;1047455;28;20678;-70
2022/06/25 00:42:44;;;;;;;3.00;1.40;;;23.00;99.90;;;;;;1047609;28;20027;-70
2022/06/25 00:43:14;;;;;;;3.00;1.25;;;22.90;99.90;;;;;;1047329;28;20035;-71
2022/06/25 00:43:45;;;;;;;2.10;1.53;;;22.80;99.90;;;;;;1047109;28;20123;-70
2022/06/25 00:44:16;;;;;;;1.67;1.33;;;23.00;99.90;;;;;;1046907;28;20012;-69
2022/06/25 00:44:47;;;;;;;1.85;1.30;;;23.00;99.90;;;;;;1047302;28;20012;-70
2022/06/25 00:45:17;;;;;;;1.73;1.40;;;23.00;99.90;;;;;;1046894;28;20533;-71
2022/06/25 00:45:48;;;;;;;1.50;1.40;;;22.90;99.90;;;;;;1043285;28;20020;-71
2022/06/25 00:46:19;;;;;;;1.33;1.20;;;23.00;99.90;;;;;;1046818;28;20103;-71
2022/06/25 00:46:49;;;;;;;1.30;1.20;;;23.30;99.90;;;;;;1047412;28;20017;-72
2022/06/25 00:47:20;;;;;;;1.20;1.02;;;23.00;99.90;;;;;;1042790;28;20016;-71
2022/06/25 00:47:51;;;;;;;1.13;1.03;;;23.00;99.90;;;;;;1047289;28;20013;-71
2022/06/25 00:48:21;;;;;;;1.13;1.00;;;22.60;99.90;;;;;;1046971;28;20530;-71
2022/06/25 00:48:52;;;;;;;1.20;1.10;;;23.20;99.90;;;;;;1043430;28;20027;-73
2022/06/25 00:49:23;;;;;;;1.90;1.30;;;23.00;99.90;;;;;;1046817;28;20021;-71
2022/06/25 00:49:53;;;;;;;1.03;1.00;;;22.80;99.90;;;;;;1047393;28;20013;-71
2022/06/25 00:50:24;;;;;;;3.87;1.20;;;22.90;99.90;;;;;;1046821;28;20009;-70
2022/06/25 00:50:58;;;;;;;1.17;1.07;;;23.40;99.90;;;;;;1047331;28;20782;-71
2022/06/25 00:51:32;;;;;;;1.92;1.75;;;23.10;99.90;;;;;;1045687;28;20024;-71
2022/06/25 00:52:10;;;;;;;1.30;1.20;;;22.80;99.90;;;;;;1043243;28;20013;-71
2022/06/25 00:52:42;;;;;;;;;;;23.00;99.90;;;;;;1043256;28;20020;-70
2022/06/25 00:53:14;;;;;;;1.42;1.33;;;23.00;99.90;;;;;;1040838;28;19944;-70
2022/06/25 00:53:46;;;;;;;1.45;1.35;;;22.90;99.90;;;;;;1042779;28;20017;-70
2022/06/25 00:54:17;;;;;;;1.05;0.90;;;22.80;99.90;;;;;;1043140;28;20063;-69
2022/06/25 00:54:50;;;;;;;1.40;1.30;;;22.90;99.90;;;;;;1042825;28;20013;-70
2022/06/25 00:55:23;;;;;;;2.25;1.20;;;22.90;99.90;;;;;;1042992;28;20015;-70
2022/06/25 00:55:54;;;;;;;2.05;1.55;;;23.00;99.90;;;;;;1042850;28;20361;-72
2022/06/25 00:56:31;;;;;;;1.07;1.07;;;23.20;99.90;;;;;;1043072;28;20021;-72
2022/06/25 00:57:05;;;;;;;1.50;1.10;;;22.70;99.90;;;;;;1042834;28;20131;-69
2022/06/25 00:57:39;;;;;;;1.50;1.33;;;22.90;99.90;;;;;;1038935;28;20009;-71
2022/06/25 00:58:11;;;;;;;1.67;1.42;;;22.90;99.90;;;;;;1040633;28;20024;-72
2022/06/25 00:58:43;;;;;;;1.52;1.10;;;23.00;99.90;;;;;;1042944;28;20009;-69
2022/06/25 00:59:18;;;;;;;1.20;1.08;;;22.90;99.90;;;;;;1043025;28;20043;-71
2022/06/25 00:59:50;;;;;;;1.40;1.08;;;22.90;99.90;;;;;;1042807;28;20090;-70
2022/06/25 01:00:20;;;;;;;2.13;1.73;;;23.20;99.90;;;;;;1043198;28;20095;-72
2022/06/25 01:00:51;;;;;;;1.10;1.00;;;22.90;99.90;;;;;;1039668;28;20024;-69
2022/06/25 01:01:22;;;;;;;1.83;1.30;;;22.90;99.90;;;;;;1043197;28;20005;-71
2022/06/25 01:01:54;;;;;;;1.73;1.25;;;22.90;99.90;;;;;;1047034;28;20040;-71
2022/06/25 01:02:24;;;;;;;0.90;0.90;;;22.70;99.90;;;;;;1047216;28;20020;-71
2022/06/25 01:02:55;;;;;;;1.47;1.20;;;23.40;99.90;;;;;;1047494;28;20016;-71
2022/06/25 01:03:29;;;;;;;0.97;0.90;;;23.10;99.90;;;;;;1046975;28;20021;-71
2022/06/25 01:04:00;;;;;;;1.13;1.00;;;22.90;99.90;;;;;;1046753;28;20075;-71
2022/06/25 01:04:31;;;;;;;1.30;1.03;;;22.90;99.90;;;;;;1047259;28;20024;-71
2022/06/25 01:05:09;;;;;;;1.20;1.10;;;23.20;99.90;;;;;;1047041;28;20032;-70
2022/06/25 01:05:40;;;;;;;;;;;22.90;99.90;;;;;;1047662;28;20163;-71
2022/06/25 01:06:10;;;;;;;2.40;1.13;;;22.90;99.90;;;;;;1046922;28;20161;-70
2022/06/25 01:06:42;;;;;;;1.30;1.20;;;22.80;99.90;;;;;;1047327;28;20025;-71
2022/06/25 01:07:12;;;;;;;1.48;1.38;;;22.80;99.90;;;;;;1046854;28;20417;-70
2022/06/25 01:07:47;;;;;;;2.20;1.30;;;23.10;99.90;;;;;;1047708;28;20556;-71
2022/06/25 01:08:18;;;;;;;1.50;1.08;;;23.00;99.90;;;;;;1047232;28;20027;-71
2022/06/25 01:08:49;;;;;;;1.27;1.10;;;22.80;99.90;;;;;;1047600;28;20162;-70
2022/06/25 01:09:20;;;;;;;1.47;1.00;;;22.80;99.90;;;;;;1046796;28;20078;-71
2022/06/25 01:09:51;;;;;;;2.17;1.13;;;22.90;99.90;;;;;;1047487;28;20024;-71
2022/06/25 01:10:22;;;;;;;1.42;1.30;;;23.10;99.90;;;;;;1046890;28;20449;-71
2022/06/25 01:10:53;;;;;;;1.93;1.27;;;23.30;99.90;;;;;;1047378;28;20470;-71
2022/06/25 01:11:24;;;;;;;1.97;1.40;;;22.80;99.90;;;;;;1047232;28;20048;-71
2022/06/25 01:11:55;;;;;;;1.45;1.35;;;22.90;99.90;;;;;;1047709;28;20019;-71
2022/06/25 01:12:25;;;;;;;0.87;0.87;;;22.70;99.90;;;;;;1046925;28;20023;-71
2022/06/25 01:12:56;;;;;;;1.37;1.23;;;22.90;99.90;;;;;;1047326;28;20024;-71
2022/06/25 01:13:28;;;;;;;1.60;1.33;;;22.90;99.90;;;;;;1047028;28;20042;-70
2022/06/25 01:13:59;;;;;;;3.10;1.52;;;22.90;99.90;;;;;;1045432;28;20017;-71
2022/06/25 01:14:29;;;;;;;1.73;1.07;;;22.80;99.90;;;;;;1043373;28;20043;-70
2022/06/25 01:15:03;;;;;;;1.33;1.23;;;23.00;99.90;;;;;;1044340;28;20013;-71
2022/06/25 01:15:33;;;;;;;2.53;1.20;;;22.80;99.90;;;;;;1047002;28;20013;-70
2022/06/25 01:16:04;;;;;;;1.20;1.10;;;22.90;99.90;;;;;;1047102;28;20013;-71
2022/06/25 01:16:34;;;;;;;1.27;1.17;;;23.40;99.90;;;;;;1047188;28;20013;-70
2022/06/25 01:17:06;;;;;;;2.13;1.33;;;23.10;99.90;;;;;;1047076;28;20523;-71
2022/06/25 01:17:45;;;;;;;2.45;1.30;;;22.90;99.90;;;;;;1047413;28;20016;-70
2022/06/25 01:18:16;;;;;;;0.70;0.70;;;22.70;99.90;;;;;;1047574;28;20048;-70
2022/06/25 01:18:47;;;;;;;1.23;0.87;;;23.20;99.90;;;;;;1047294;28;20021;-71
2022/06/25 01:19:17;;;;;;;1.45;1.35;;;22.90;99.90;;;;;;1047412;28;20035;-71
2022/06/25 01:19:48;;;;;;;1.20;1.10;;;22.80;99.90;;;;;;1046873;28;20024;-70
2022/06/25 01:20:23;;;;;;;1.20;1.10;;;22.90;99.90;;;;;;1046596;28;20160;-71
2022/06/25 01:20:54;;;;;;;1.60;1.33;;;23.20;99.90;;;;;;1047056;28;20095;-71
2022/06/25 01:21:26;;;;;;;1.23;1.13;;;22.90;99.90;;;;;;1047223;28;20016;-71
2022/06/25 01:22:03;;;;;;;1.20;1.10;;;22.70;99.90;;;;;;1046876;28;20027;-70
2022/06/25 01:22:34;;;;;;;0.90;0.90;;;22.90;99.90;;;;;;1047239;28;20024;-71
2022/06/25 01:23:04;;;;;;;2.50;1.53;;;23.40;99.90;;;;;;1046768;28;20610;-71
2022/06/25 01:23:36;;;;;;;1.67;1.13;;;23.20;99.90;;;;;;1047191;28;20127;-72
2022/06/25 01:24:07;;;;;;;0.93;0.93;;;23.00;99.90;;;;;;1046908;28;20028;-70
2022/06/25 01:24:37;;;;;;;3.07;1.30;;;23.10;99.90;;;;;;1047175;28;20012;-71
2022/06/25 01:25:09;;;;;;;1.57;1.40;;;22.90;99.90;;;;;;1042712;28;20021;-71
2022/06/25 01:25:41;;;;;;;1.33;1.20;;;22.90;99.90;;;;;;1043176;28;20392;-71
2022/06/25 01:26:11;;;;;;;1.90;1.52;;;22.90;99.90;;;;;;1043195;28;20017;-71
2022/06/25 01:26:42;;;;;;;1.20;1.10;;;22.90;99.90;;;;;;1046999;28;20579;-71
2022/06/25 01:27:14;;;;;;;1.33;1.10;;;22.80;99.90;;;;;;1047128;28;20021;-71
2022/06/25 01:27:46;;;;;;;1.55;1.30;;;22.70;99.90;;;;;;1047442;28;20021;-71
2022/06/25 01:28:17;;;;;;;1.10;1.00;;;23.10;99.90;;;;;;1046613;28;20020;-70
2022/06/25 01:28:47;;;;;;;1.33;1.23;;;22.80;99.90;;;;;;1044357;28;20112;-71
2022/06/25 01:29:18;;;;;;;1.50;1.40;;;22.90;99.90;;;;;;1042526;28;20021;-71
2022/06/25 01:29:49;;;;;;;2.10;1.40;;;22.90;99.90;;;;;;1038875;28;20093;-71
2022/06/25 01:30:19;;;;;;;1.20;1.07;;;23.20;99.90;;;;;;1042765;28;20024;-70
2022/06/25 01:30:50;;;;;;;1.47;1.37;;;22.70;99.90;;;;;;1043322;28;20024;-72
2022/06/25 01:31:21;;;;;;;1.33;1.13;;;22.80;99.90;;;;;;1038619;28;20260;-70
2022/06/25 01:31:52;;;;;;;1.50;1.40;;;22.90;99.90;;;;;;1043168;28;20044;-71
2022/06/25 01:32:23;;;;;;;1.15;1.00;;;22.90;99.90;;;;;;1042600;28;20021;-71
2022/06/25 01:32:53;;;;;;;1.40;1.30;;;22.80;99.90;;;;;;1043175;28;20024;-71
2022/06/25 01:33:24;;;;;;;0.83;0.83;;;23.00;99.90;;;;;;1043174;28;20538;-71
2022/06/25 01:33:55;;;;;;;2.77;1.10;;;22.80;99.90;;;;;;1042816;28;20095;-71
2022/06/25 01:34:25;;;;;;;0.97;0.87;;;22.80;99.90;;;;;;1042778;28;20021;-71
2022/06/25 01:34:56;;;;;;;1.10;0.90;;;22.80;99.90;;;;;;1042896;28;20075;-70
2022/06/25 01:35:26;;;;;;;1.10;1.00;;;22.80;99.90;;;;;;1042997;28;20466;-71
2022/06/25 01:35:57;;;;;;;1.27;1.17;;;22.80;99.90;;;;;;1038451;28;20017;-71
2022/06/25 01:36:27;;;;;;;1.60;1.03;;;22.80;99.90;;;;;;1043060;28;20021;-71
2022/06/25 01:36:58;;;;;;;1.97;1.00;;;22.90;99.90;;;;;;1042788;28;20029;-71
2022/06/25 01:37:28;;;;;;;0.93;0.90;;;23.10;99.90;;;;;;1042926;28;20029;-71
2022/06/25 01:37:59;;;;;;;1.47;1.27;;;22.80;99.90;;;;;;1043022;28;20021;-71
2022/06/25 01:38:30;;;;;;;2.27;1.20;;;22.80;99.90;;;;;;1042847;28;20033;-71
2022/06/25 01:39:00;;;;;;;1.23;1.10;;;23.10;99.90;;;;;;1042745;28;20032;-71
2022/06/25 01:39:31;;;;;;;1.20;0.80;;;22.70;99.90;;;;;;1043138;28;20071;-71
2022/06/25 01:40:02;;;;;;;1.23;1.03;;;22.80;99.90;;;;;;1042641;28;20031;-71
2022/06/25 01:40:33;;;;;;;1.03;1.00;;;22.70;99.90;;;;;;1046880;28;20030;-70
2022/06/25 01:41:03;;;;;;;1.20;1.10;;;22.90;99.90;;;;;;1046753;28;20259;-71
2022/06/25 01:41:34;;;;;;;0.90;0.90;;;22.80;99.90;;;;;;1047117;28;20016;-71
2022/06/25 01:42:05;;;;;;;2.20;1.47;;;22.80;99.90;;;;;;1046978;28;20024;-71
2022/06/25 01:43:24;;;;;;;2.00;1.20;;;22.50;99.90;;;;;;1047254;28;20055;-71
2022/06/25 01:43:55;;;;;;;1.73;1.30;;;22.80;99.90;;;;;;1046585;28;20024;-70
2022/06/25 01:44:26;;;;;;;1.63;1.10;;;22.70;99.90;;;;;;1042716;28;20074;-71
2022/06/25 01:44:56;;;;;;;1.63;1.30;;;22.70;99.90;;;;;;1038764;28;20045;-70
2022/06/25 01:45:32;;;;;;;1.20;1.10;;;23.10;99.90;;;;;;1038692;28;20044;-70
2022/06/25 01:46:08;;;;;;;1.35;1.00;;;22.70;99.90;;;;;;1039425;28;20010;-70
2022/06/25 01:46:38;;;;;;;1.55;1.02;;;23.10;99.90;;;;;;1043247;28;20498;-71
2022/06/25 01:47:09;;;;;;;1.30;1.20;;;22.80;99.90;;;;;;1043191;28;20338;-70
2022/06/25 01:47:39;;;;;;;1.37;1.27;;;22.80;99.90;;;;;;1043088;28;20484;-71
2022/06/25 01:48:10;;;;;;;1.30;1.10;;;22.70;99.90;;;;;;1043190;28;20535;-70
2022/06/25 01:48:41;;;;;;;1.50;1.03;;;22.80;99.90;;;;;;1043261;28;20411;-71
2022/06/25 01:49:11;;;;;;;0.90;0.90;;;22.70;99.90;;;;;;1043139;28;20093;-69
2022/06/25 01:49:42;;;;;;;3.73;1.00;;;22.70;99.90;;;;;;1043337;28;20017;-70
2022/06/25 01:50:13;;;;;;;1.57;1.37;;;22.80;99.90;;;;;;1043344;28;20009;-69
2022/06/25 01:50:44;;;;;;;1.83;1.20;;;22.80;99.90;;;;;;1042598;28;20017;-70
2022/06/25 01:51:16;;;;;;;1.17;1.03;;;22.60;99.90;;;;;;1042954;28;20017;-70
2022/06/25 01:51:47;;;;;;;1.05;1.00;;;22.60;99.90;;;;;;1042907;28;20025;-71
2022/06/25 01:52:17;;;;;;;0.80;0.80;;;23.00;99.90;;;;;;1042863;28;20009;-71
2022/06/25 01:52:48;;;;;;;1.63;1.30;;;22.70;99.90;;;;;;1043076;28;20523;-72
2022/06/25 01:53:18;;;;;;;1.30;1.10;;;22.70;99.90;;;;;;1043345;28;20013;-72
2022/06/25 01:53:50;;;;;;;2.03;1.33;;;22.70;99.90;;;;;;1042542;28;20495;-70
2022/06/25 01:54:21;;;;;;;1.90;1.50;;;22.80;99.90;;;;;;1043036;28;20009;-71
2022/06/25 01:54:52;;;;;;;2.85;1.30;;;22.70;99.90;;;;;;1038614;28;20017;-71
2022/06/25 01:55:22;;;;;;;1.53;1.30;;;22.60;99.90;;;;;;1040934;28;20013;-72
2022/06/25 01:55:53;;;;;;;0.87;0.87;;;22.90;99.90;;;;;;1042762;28;20040;-71
2022/06/25 01:56:24;;;;;;;3.90;0.97;;;22.70;99.90;;;;;;1043009;28;20009;-71
2022/06/25 01:56:54;;;;;;;0.73;0.73;;;22.60;99.90;;;;;;1042626;28;20116;-71
2022/06/25 01:57:26;;;;;;;1.10;1.00;;;22.70;99.90;;;;;;1042846;28;20146;-71
2022/06/25 01:57:56;;;;;;;1.88;1.30;;;22.70;99.90;;;;;;1042496;28;20013;-71
2022/06/25 01:58:27;;;;;;;1.37;1.00;;;22.80;99.90;;;;;;1043041;28;20066;-72
2022/06/25 01:58:58;;;;;;;1.70;1.30;;;22.90;99.90;;;;;;1042974;28;20062;-71
2022/06/25 01:59:28;;;;;;;1.57;1.00;;;23.20;99.90;;;;;;1043322;28;20013;-71
2022/06/25 01:59:59;;;;;;;1.97;1.37;;;22.70;99.90;;;;;;1042809;28;20017;-71
2022/06/25 02:00:31;;;;;;;0.90;0.90;;;22.70;99.90;;;;;;1043361;28;20043;-71
2022/06/25 02:01:02;;;;;;;1.55;1.02;;;22.80;99.90;;;;;;1042959;28;20021;-71
2022/06/25 02:01:33;;;;;;;2.53;1.10;;;22.70;99.90;;;;;;1043153;28;20052;-71
2022/06/25 02:02:04;;;;;;;2.83;1.30;;;22.60;99.90;;;;;;1043095;28;20013;-71
2022/06/25 02:02:35;;;;;;;1.13;1.03;;;22.70;99.90;;;;;;1043245;28;20020;-71
2022/06/25 02:03:05;;;;;;;1.08;0.90;;;22.80;99.90;;;;;;1042579;28;20013;-71
2022/06/25 02:03:36;;;;;;;2.10;0.97;;;22.70;99.90;;;;;;1042860;28;20023;-71
2022/06/25 02:04:06;;;;;;;1.57;1.30;;;22.70;99.90;;;;;;1042600;28;20035;-71
2022/06/25 02:04:37;;;;;;;2.07;1.37;;;22.60;99.90;;;;;;1043267;28;20099;-71
2022/06/25 02:05:09;;;;;;;1.10;1.00;;;23.00;99.90;;;;;;1045739;28;20028;-72
2022/06/25 02:05:59;;;;;;;1.05;0.98;;;22.60;99.90;;;;;;1047367;28;20781;-72
2022/06/25 02:06:29;;;;;;;2.58;1.42;;;22.90;99.90;;;;;;1047236;28;20387;-71
2022/06/25 02:07:00;;;;;;;1.93;1.17;;;22.90;99.90;;;;;;1047080;28;20483;-69
2022/06/25 02:07:31;;;;;;;1.60;1.20;;;22.70;99.90;;;;;;1047220;28;20017;-70
2022/06/25 02:08:02;;;;;;;1.73;1.17;;;22.70;99.90;;;;;;1047346;28;20574;-70
2022/06/25 02:08:37;;;;;;;1.40;1.30;;;22.70;99.90;;;;;;1047224;28;20017;-71
2022/06/25 02:09:08;;;;;;;2.42;1.33;;;22.70;99.90;;;;;;1046842;28;20044;-69
2022/06/25 02:09:38;;;;;;;1.23;1.03;;;22.80;99.90;;;;;;1047048;28;20097;-71
2022/06/25 02:10:10;;;;;;;2.20;1.50;;;22.70;99.90;;;;;;1047221;28;20016;-69
2022/06/25 02:10:41;;;;;;;1.10;0.93;;;22.60;99.90;;;;;;1046616;28;20555;-70
2022/06/25 02:11:12;;;;;;;1.13;1.02;;;22.60;99.90;;;;;;1047209;28;20016;-70
2022/06/25 02:11:42;;;;;;;1.43;1.20;;;22.70;99.90;;;;;;1046653;28;20112;-71
2022/06/25 02:12:16;;;;;;;2.20;1.20;;;22.70;99.90;;;;;;1047153;28;20123;-70
2022/06/25 02:12:46;;;;;;;1.73;1.10;;;22.60;99.90;;;;;;1046983;28;20062;-70
2022/06/25 02:13:17;;;;;;;2.60;1.20;;;22.60;99.90;;;;;;1042607;28;20074;-70
2022/06/25 02:13:48;;;;;;;1.97;1.03;;;22.60;99.90;;;;;;1043229;28;20017;-71
2022/06/25 02:14:18;;;;;;;1.40;1.30;;;22.70;99.90;;;;;;1042848;28;20923;-70
2022/06/25 02:14:49;;;;;;;2.40;0.90;;;22.60;99.90;;;;;;1038846;28;20067;-70
2022/06/25 02:15:20;;;;;;;1.23;1.13;;;22.60;99.90;;;;;;1046729;28;20017;-70
2022/06/25 02:15:51;;;;;;;1.17;1.07;;;22.70;99.90;;;;;;1042631;28;20772;-70
2022/06/25 02:16:22;;;;;;;1.48;1.17;;;22.80;99.90;;;;;;1043077;28;20098;-71
2022/06/25 02:16:55;;;;;;;1.40;0.93;;;22.80;99.90;;;;;;1046975;28;20028;-70
2022/06/25 02:17:26;;;;;;;1.40;1.30;;;22.70;99.90;;;;;;1047158;28;20047;-71
2022/06/25 02:17:56;;;;;;;2.50;1.30;;;22.50;99.90;;;;;;1047068;28;20021;-70
2022/06/25 02:18:27;;;;;;;1.00;0.90;;;22.60;99.90;;;;;;1047395;28;20025;-70
2022/06/25 02:18:58;;;;;;;2.58;0.88;;;22.60;99.90;;;;;;1046604;28;20040;-70
2022/06/25 02:19:28;;;;;;;1.30;1.20;;;22.70;99.90;;;;;;1047038;28;20391;-70
2022/06/25 02:19:59;;;;;;;1.30;1.20;;;22.60;99.90;;;;;;1046800;28;20019;-70
2022/06/25 02:20:30;;;;;;;1.20;1.10;;;22.50;99.90;;;;;;1047060;28;20017;-70
2022/06/25 02:21:00;;;;;;;1.83;1.23;;;22.60;99.90;;;;;;1046957;28;20499;-70
2022/06/25 02:21:31;;;;;;;1.00;0.90;;;22.50;99.90;;;;;;1047361;28;20108;-70
2022/06/25 02:22:01;;;;;;;1.33;1.03;;;22.60;99.90;;;;;;1046979;28;20581;-70
2022/06/25 02:22:32;;;;;;;1.20;1.10;;;22.60;99.90;;;;;;1047065;28;20446;-70
2022/06/25 02:23:03;;;;;;;1.40;1.30;;;22.90;99.90;;;;;;1046687;28;20021;-70
2022/06/25 02:23:33;;;;;;;1.40;1.30;;;22.90;99.90;;;;;;1047123;28;20032;-70
2022/06/25 02:24:04;;;;;;;3.23;1.33;;;22.50;99.90;;;;;;1046459;28;20035;-70
2022/06/25 02:24:35;;;;;;;3.28;1.20;;;22.60;99.90;;;;;;1047050;28;20025;-70
2022/06/25 02:25:06;;;;;;;1.73;1.37;;;22.40;99.90;;;;;;1043437;28;20113;-70
2022/06/25 02:25:36;;;;;;;1.10;1.03;;;22.60;99.90;;;;;;1038627;28;20017;-70
2022/06/25 02:26:07;;;;;;;1.17;0.97;;;22.80;99.90;;;;;;1038442;28;20080;-70
2022/06/25 02:26:38;;;;;;;2.17;1.13;;;22.60;99.90;;;;;;1038789;28;20568;-70
2022/06/25 02:27:08;;;;;;;3.03;1.47;;;22.60;99.90;;;;;;1042570;28;20131;-70
2022/06/25 02:27:39;;;;;;;1.43;1.17;;;22.70;99.90;;;;;;1042748;28;20017;-71
2022/06/25 02:28:10;;;;;;;2.43;1.23;;;22.80;99.90;;;;;;1042494;28;20071;-69
2022/06/25 02:28:40;;;;;;;1.38;1.00;;;22.60;99.90;;;;;;1042763;28;20025;-70
2022/06/25 02:29:11;;;;;;;1.27;1.17;;;22.60;99.90;;;;;;1042579;28;20028;-70
2022/06/25 02:29:41;;;;;;;1.47;1.13;;;22.50;99.90;;;;;;1042607;28;20032;-70
2022/06/25 02:30:12;;;;;;;1.57;1.17;;;22.60;99.90;;;;;;1042521;28;20036;-69
2022/06/25 02:30:44;;;;;;;1.27;1.17;;;22.70;99.90;;;;;;1042758;28;20025;-70
2022/06/25 02:31:15;;;;;;;1.75;1.20;;;22.70;99.90;;;;;;1042478;28;20025;-70
2022/06/25 02:31:45;;;;;;;1.13;0.90;;;22.60;99.90;;;;;;1043551;28;20033;-70
2022/06/25 02:32:16;;;;;;;1.57;1.20;;;22.80;99.90;;;;;;1043349;28;20636;-71
2022/06/25 02:32:47;;;;;;;1.00;0.90;;;22.70;99.90;;;;;;1043437;28;20029;-70
2022/06/25 02:33:19;;;;;;;0.95;0.95;;;22.50;99.90;;;;;;1043514;28;20071;-71
2022/06/25 02:33:49;;;;;;;1.48;1.13;;;22.40;99.90;;;;;;1043521;28;20028;-70
2022/06/25 02:34:20;;;;;;;1.20;1.10;;;22.60;99.90;;;;;;1043431;28;20067;-69
2022/06/25 02:34:50;;;;;;;1.10;1.00;;;22.70;99.90;;;;;;1039417;28;20029;-70
2022/06/25 02:35:21;;;;;;;1.47;1.27;;;22.50;99.90;;;;;;1039319;28;20060;-70
2022/06/25 02:35:52;;;;;;;1.90;0.90;;;22.60;99.90;;;;;;1039480;28;20827;-70
2022/06/25 02:36:22;;;;;;;1.33;1.23;;;22.50;99.90;;;;;;1039680;28;20033;-69
2022/06/25 02:36:53;;;;;;;1.03;0.90;;;22.40;99.90;;;;;;1047544;28;20016;-70
2022/06/25 02:37:23;;;;;;;1.03;0.93;;;22.60;99.90;;;;;;1048049;28;20021;-70
2022/06/25 02:37:54;;;;;;;1.23;1.13;;;22.70;99.90;;;;;;1047448;28;20023;-71
2022/06/25 02:38:24;;;;;;;1.60;1.10;;;22.90;99.90;;;;;;1047869;28;20052;-70
2022/06/25 02:38:55;;;;;;;1.10;1.00;;;22.70;99.90;;;;;;1047655;28;20953;-71
2022/06/25 02:39:25;;;;;;;1.07;1.00;;;22.50;99.90;;;;;;1047826;28;20473;-71
2022/06/25 02:39:56;;;;;;;1.40;1.30;;;22.40;99.90;;;;;;1047535;28;20108;-70
2022/06/25 02:40:26;;;;;;;2.63;1.10;;;22.50;99.90;;;;;;1047867;28;20414;-70
2022/06/25 02:40:57;;;;;;;1.93;1.40;;;22.60;99.90;;;;;;1047522;28;20017;-70
2022/06/25 02:41:27;;;;;;;1.33;1.00;;;22.60;99.90;;;;;;1047821;28;20028;-70
2022/06/25 02:41:58;;;;;;;1.40;1.27;;;22.60;99.90;;;;;;1047478;28;20024;-70
2022/06/25 02:42:36;;;;;;;1.57;1.27;;;22.60;99.90;;;;;;1047793;28;20024;-71
2022/06/25 02:43:07;;;;;;;1.30;1.13;;;22.50;99.90;;;;;;1048067;28;20024;-71
2022/06/25 02:43:37;;;;;;;2.47;1.00;;;22.50;99.90;;;;;;1048036;28;20048;-70
2022/06/25 02:44:08;;;;;;;1.17;0.90;;;22.70;99.90;;;;;;1047618;28;20336;-70
2022/06/25 02:44:39;;;;;;;1.27;1.03;;;22.60;99.90;;;;;;1048090;28;20472;-70
2022/06/25 02:45:10;;;;;;;1.67;1.00;;;22.70;99.90;;;;;;1047885;28;20038;-70
2022/06/25 02:45:40;;;;;;;1.17;1.00;;;22.50;99.90;;;;;;1048051;28;20082;-71
2022/06/25 02:46:11;;;;;;;1.17;1.07;;;22.50;99.90;;;;;;1047523;28;20050;-70